Time;durP1;ratioP1;P1;durP2;ratioP2;P2;SDS_P1;SDS_P2;PMS_P1;PMS_P2;Temp;Humidity;BMP_temperature;BMP_pressure;BME280_temperature;BME280_humidity;BME280_pressure;Samples;Min_cycle;Max_cycle;Signal;HPM_P1;HPM_P2
2022/05/11 00:01:56;;;;;;;4.07;2.22;;;;;;;21.34;46.31;101286.16;5081842;28;20052;-45
2022/05/11 00:04:21;;;;;;;2.47;1.75;;;;;;;21.32;46.77;101288.16;5084603;28;20438;-49
2022/05/11 00:06:49;;;;;;;2.58;1.60;;;;;;;21.33;46.72;101288.00;5085240;28;20028;-45
2022/05/11 00:09:14;;;;;;;2.78;1.60;;;;;;;21.31;46.42;101290.00;5084816;28;20056;-46
2022/05/11 00:11:40;;;;;;;2.53;1.70;;;;;;;21.32;46.50;101280.06;5084962;28;20024;-49
2022/05/11 00:14:06;;;;;;;2.00;1.50;;;;;;;21.32;46.64;101285.47;5084859;28;20028;-45
2022/05/11 00:16:33;;;;;;;2.22;1.48;;;;;;;21.32;46.37;101277.34;5084039;28;20028;-47
2022/05/11 00:18:58;;;;;;;2.75;1.90;;;;;;;21.31;46.59;101281.03;5066208;28;20079;-45
2022/05/11 00:21:23;;;;;;;2.75;1.83;;;;;;;21.30;46.60;101279.38;5064557;28;20529;-44
2022/05/11 00:23:51;;;;;;;2.63;1.40;;;;;;;21.30;46.33;101266.69;5078766;28;20110;-48
2022/05/11 00:26:16;;;;;;;2.00;1.70;;;;;;;21.29;46.60;101272.28;5084642;28;20043;-48
2022/05/11 00:28:42;;;;;;;3.30;2.17;;;;;;;21.30;46.61;101279.38;5084557;28;20080;-45
2022/05/11 00:31:08;;;;;;;2.88;1.75;;;;;;;21.28;46.95;101255.22;5084161;28;20032;-49
2022/05/11 00:33:33;;;;;;;2.25;1.48;;;;;;;21.28;46.46;101254.34;5084491;28;20112;-46
2022/05/11 00:35:59;;;;;;;3.33;1.73;;;;;;;21.28;46.55;101243.53;5084007;28;20025;-47
2022/05/11 00:38:26;;;;;;;2.95;1.48;;;;;;;21.28;46.52;101241.69;5095886;28;20024;-46
2022/05/11 00:40:57;;;;;;;2.25;1.60;;;;;;;21.28;46.78;101239.00;5104635;28;20019;-46
2022/05/11 00:43:37;;;;;;;2.33;1.33;;;;;;;21.28;46.46;101241.69;5102995;28;20054;-45
2022/05/11 00:46:10;;;;;;;2.33;1.42;;;;;;;21.26;46.79;101235.59;5083502;28;20049;-47
2022/05/11 00:51:19;;;;;;;2.15;1.33;;;;;;;21.26;46.74;101227.47;5082964;28;20074;-45
2022/05/11 00:53:49;;;;;;;2.40;1.40;;;;;;;21.26;46.46;101223.94;5071610;28;20029;-45
2022/05/11 00:56:15;;;;;;;2.55;1.50;;;;;;;21.21;46.68;101211.78;5064146;28;20025;-46
2022/05/11 00:58:43;;;;;;;2.53;1.30;;;;;;;21.25;46.56;101220.41;5063864;28;20032;-48
2022/05/11 01:01:09;;;;;;;3.63;1.73;;;;;;;21.24;46.76;101224.13;5067789;28;20020;-51
2022/05/11 01:03:40;;;;;;;2.35;1.70;;;;;;;21.26;46.81;101215.81;5083901;28;20040;-50
2022/05/11 01:06:07;;;;;;;2.50;1.48;;;;;;;21.24;46.52;101216.03;5081827;28;20594;-45
2022/05/11 01:08:32;;;;;;;2.05;1.30;;;;;;;21.24;46.76;101210.59;5082892;28;20047;-51
2022/05/11 01:11:00;;;;;;;2.78;1.80;;;;;;;21.22;46.55;101199.94;5083767;28;20028;-48
2022/05/11 01:13:26;;;;;;;2.80;1.52;;;;;;;21.23;46.52;101211.59;5081715;28;20032;-48
2022/05/11 01:15:51;;;;;;;2.40;1.80;;;;;;;21.23;46.69;101209.75;5083223;28;20032;-48
2022/05/11 01:18:19;;;;;;;2.85;1.50;;;;;;;21.23;46.89;101203.50;5081530;28;20028;-45
2022/05/11 01:20:47;;;;;;;3.25;1.63;;;;;;;21.21;46.43;101200.97;5083594;28;20036;-47
2022/05/11 01:23:32;;;;;;;1.90;1.20;;;;;;;21.23;46.70;101196.22;5082502;28;20029;-46
2022/05/11 01:25:57;;;;;;;1.95;1.23;;;;;;;21.21;46.88;101194.72;5082284;28;20040;-45
2022/05/11 01:28:22;;;;;;;2.30;1.52;;;;;;;21.21;46.47;101197.44;5083481;28;20413;-46
2022/05/11 01:30:50;;;;;;;2.03;1.40;;;;;;;21.22;46.56;101188.28;5083283;28;20086;-45
2022/05/11 01:33:19;;;;;;;2.00;1.40;;;;;;;21.21;46.58;101189.31;5083497;28;20115;-47
2022/05/11 01:36:19;;;;;;;3.08;1.58;;;;;;;21.20;46.58;101188.47;5083253;28;20546;-49
2022/05/11 01:38:50;;;;;;;1.85;1.27;;;;;;;21.19;46.69;101183.22;5097106;28;20043;-48
2022/05/11 01:41:20;;;;;;;2.58;1.45;;;;;;;21.20;46.78;101188.47;5103667;28;20028;-47
2022/05/11 01:43:46;;;;;;;2.15;1.30;;;;;;;21.18;46.85;101182.38;5090577;28;20028;-47
2022/05/11 01:46:11;;;;;;;2.53;1.63;;;;;;;21.19;46.52;101177.81;5082692;28;20048;-47
2022/05/11 01:48:37;;;;;;;1.45;1.13;;;;;;;21.16;46.72;101168.22;5081916;28;20043;-46
2022/05/11 01:51:02;;;;;;;1.75;1.33;;;;;;;21.19;46.44;101167.00;5082008;28;20025;-47
2022/05/11 01:53:29;;;;;;;2.25;1.25;;;;;;;21.16;46.73;101159.28;5083429;28;20031;-47
2022/05/11 01:55:54;;;;;;;1.80;1.35;;;;;;;21.17;46.34;101166.34;5081840;28;20039;-50
2022/05/11 01:58:20;;;;;;;1.80;1.10;;;;;;;21.18;46.71;101159.91;5083214;28;20029;-45
2022/05/11 02:00:46;;;;;;;2.20;1.23;;;;;;;21.16;46.63;101161.97;5082733;28;20017;-45
2022/05/11 02:03:12;;;;;;;2.40;1.42;;;;;;;21.18;46.73;101168.03;5083256;28;20035;-48
2022/05/11 02:08:22;;;;;;;2.50;1.30;;;;;;;21.16;46.82;101148.47;5083380;28;20055;-47
2022/05/11 02:10:47;;;;;;;1.35;0.93;;;;;;;21.13;46.68;101143.41;5083261;28;20028;-48
2022/05/11 02:13:13;;;;;;;3.03;1.58;;;;;;;21.17;46.60;101156.38;5082257;28;20084;-47
2022/05/11 02:15:39;;;;;;;2.15;1.50;;;;;;;21.16;46.58;101157.41;5082714;28;20032;-45
2022/05/11 02:18:04;;;;;;;1.98;1.40;;;;;;;21.15;46.40;101141.34;5086435;28;20032;-50
2022/05/11 02:20:30;;;;;;;1.90;1.20;;;;;;;21.10;46.44;101136.47;5086839;28;20029;-48
2022/05/11 02:22:56;;;;;;;1.92;1.35;;;;;;;21.13;46.56;101133.41;5086060;28;20016;-45
2022/05/11 02:25:22;;;;;;;1.98;1.35;;;;;;;21.16;46.59;101145.75;5086888;28;20100;-46
2022/05/11 02:27:49;;;;;;;2.97;1.45;;;;;;;21.15;46.65;101144.91;5087184;28;20024;-47
2022/05/11 02:30:17;;;;;;;2.33;1.20;;;;;;;21.15;46.43;101147.63;5086265;28;20067;-45
2022/05/11 02:32:43;;;;;;;1.20;1.00;;;;;;;21.14;46.50;101150.47;5086861;28;20084;-49
2022/05/11 02:35:16;;;;;;;4.13;1.50;;;;;;;21.15;46.30;101157.56;5086633;28;20051;-45
2022/05/11 02:37:56;;;;;;;2.60;1.30;;;;;;;21.14;46.38;101151.31;5087234;28;20024;-50
2022/05/11 02:40:27;;;;;;;1.77;1.35;;;;;;;21.14;46.47;101155.88;5066477;28;20025;-48
2022/05/11 02:42:53;;;;;;;2.10;1.30;;;;;;;21.13;46.39;101148.81;5068982;28;20543;-48
2022/05/11 02:45:19;;;;;;;2.40;1.30;;;;;;;21.14;46.30;101151.31;5083262;28;20025;-47
2022/05/11 02:47:45;;;;;;;2.10;1.52;;;;;;;21.13;46.52;101151.50;5086473;28;20048;-49
2022/05/11 02:50:13;;;;;;;2.20;1.30;;;;;;;21.13;46.56;101152.34;5085951;28;20487;-50
2022/05/11 02:52:38;;;;;;;2.22;1.30;;;;;;;21.11;46.32;101142.72;5086681;28;20048;-46
2022/05/11 02:55:04;;;;;;;1.45;0.98;;;;;;;21.12;46.79;101145.25;5086180;28;20032;-47
2022/05/11 02:57:29;;;;;;;2.25;1.30;;;;;;;21.12;46.37;101142.56;5086709;28;20028;-49
2022/05/11 02:59:54;;;;;;;1.95;1.30;;;;;;;21.12;46.63;101141.72;5085597;28;20054;-47
2022/05/11 03:02:21;;;;;;;1.90;1.50;;;;;;;21.12;46.35;101133.59;5086431;28;20075;-46
2022/05/11 03:04:50;;;;;;;2.10;1.33;;;;;;;21.13;46.64;101138.00;5084556;28;20028;-49
2022/05/11 03:07:15;;;;;;;2.08;1.20;;;;;;;21.11;46.57;101140.88;5086401;28;20032;-44
2022/05/11 03:09:41;;;;;;;2.28;1.27;;;;;;;21.06;46.60;101126.19;5085960;28;20084;-47
2022/05/11 03:12:07;;;;;;;1.60;1.00;;;;;;;21.08;46.31;101127.72;5086182;28;20051;-46
2022/05/11 03:14:32;;;;;;;1.45;1.00;;;;;;;21.06;46.33;101124.31;5069597;28;20021;-48
2022/05/11 03:16:57;;;;;;;1.55;1.30;;;;;;;21.11;46.63;101126.50;5065962;28;20025;-45
2022/05/11 03:19:23;;;;;;;2.38;1.27;;;;;;;21.10;46.20;101116.72;5065604;28;20493;-44
2022/05/11 03:21:48;;;;;;;1.58;1.10;;;;;;;21.09;46.27;101115.03;5066163;28;20024;-47
2022/05/11 03:24:13;;;;;;;1.85;1.10;;;;;;;21.08;46.56;101111.47;5065707;28;20021;-47
2022/05/11 03:26:38;;;;;;;1.77;1.33;;;;;;;21.09;46.32;101106.91;5065853;28;20029;-45
2022/05/11 03:29:05;;;;;;;2.15;1.40;;;;;;;21.08;46.51;101103.38;5065091;28;20029;-47
2022/05/11 03:31:32;;;;;;;1.52;1.23;;;;;;;21.08;46.31;101103.38;5065475;28;20051;-45
2022/05/11 03:36:42;;;;;;;1.25;1.10;;;;;;;21.06;46.40;101108.09;5065802;28;20066;-47
2022/05/11 03:39:07;;;;;;;1.08;0.90;;;;;;;21.06;46.65;101101.84;5086841;28;20063;-47
2022/05/11 03:41:32;;;;;;;1.85;1.20;;;;;;;21.07;46.59;101095.44;5105656;28;20085;-46
2022/05/11 03:43:57;;;;;;;1.38;1.10;;;;;;;21.04;46.65;101093.94;5084175;28;20108;-46
2022/05/11 03:46:23;;;;;;;1.85;1.00;;;;;;;21.05;46.35;101092.91;5084810;28;20048;-48
2022/05/11 03:48:48;;;;;;;1.77;1.00;;;;;;;21.05;46.30;101089.38;5085391;28;20044;-45
2022/05/11 03:51:13;;;;;;;1.63;1.08;;;;;;;21.05;46.50;101095.63;5085254;28;20046;-45
2022/05/11 03:53:38;;;;;;;1.85;1.10;;;;;;;21.05;46.55;101089.38;5085472;28;20048;-45
2022/05/11 03:56:04;;;;;;;1.10;1.00;;;;;;;21.04;46.44;101088.53;5085399;28;20017;-43
2022/05/11 03:58:29;;;;;;;1.10;1.00;;;;;;;21.03;46.23;101086.84;5067103;28;20040;-46
2022/05/11 04:00:54;;;;;;;2.17;1.20;;;;;;;21.03;46.46;101084.16;5084726;28;20036;-46
2022/05/11 04:03:19;;;;;;;2.08;1.17;;;;;;;21.02;46.23;101090.56;5085026;28;20028;-48
2022/05/11 04:05:45;;;;;;;1.90;1.10;;;;;;;21.03;46.35;101086.03;5084851;28;20024;-47
2022/05/11 04:08:10;;;;;;;1.70;0.98;;;;;;;21.01;46.36;101085.34;5083656;28;20032;-49
2022/05/11 04:10:35;;;;;;;2.25;1.45;;;;;;;21.03;46.21;101081.44;5084841;28;20024;-49
2022/05/11 04:13:01;;;;;;;3.72;1.30;;;;;;;21.03;46.17;101086.03;5083207;28;20028;-51
2022/05/11 04:15:26;;;;;;;1.50;1.02;;;;;;;21.00;46.63;101067.44;5084319;28;20060;-51
2022/05/11 04:17:51;;;;;;;1.77;1.10;;;;;;;21.02;46.22;101071.63;5085027;28;20040;-50
2022/05/11 04:20:18;;;;;;;1.45;1.10;;;;;;;21.03;46.13;101058.97;5083828;28;20028;-48
2022/05/11 04:22:43;;;;;;;1.63;0.90;;;;;;;21.02;46.48;101063.53;5083154;28;20740;-47
2022/05/11 04:25:10;;;;;;;1.20;1.10;;;;;;;21.02;46.28;101055.41;5083845;28;20012;-46
2022/05/11 04:27:36;;;;;;;1.02;0.85;;;;;;;21.02;46.63;101058.13;5084056;28;20029;-49
2022/05/11 04:30:04;;;;;;;1.50;1.10;;;;;;;21.03;46.32;101050.88;5080825;28;20031;-45
2022/05/11 04:32:29;;;;;;;1.67;1.20;;;;;;;21.01;46.28;101056.44;5084580;28;20028;-45
2022/05/11 04:34:54;;;;;;;1.67;1.13;;;;;;;21.01;46.23;101061.84;5083292;28;20047;-49
2022/05/11 04:37:19;;;;;;;1.02;0.80;;;;;;;21.01;46.50;101066.41;5081635;28;20020;-49
2022/05/11 04:39:45;;;;;;;1.60;0.85;;;;;;;21.01;46.50;101069.13;5082437;28;20032;-50
2022/05/11 04:42:14;;;;;;;1.73;1.20;;;;;;;21.01;46.46;101074.53;5083296;28;20036;-48
2022/05/11 04:44:40;;;;;;;1.25;1.10;;;;;;;20.95;46.45;101068.81;5083236;28;20020;-44
2022/05/11 04:47:11;;;;;;;1.27;1.10;;;;;;;21.00;46.17;101070.16;5083290;28;20108;-48
2022/05/11 04:49:37;;;;;;;1.90;1.27;;;;;;;21.00;46.20;101070.16;5081262;28;20081;-47
2022/05/11 04:52:08;;;;;;;1.20;1.10;;;;;;;21.01;46.45;101069.13;5075559;28;20025;-48
2022/05/11 04:54:36;;;;;;;1.40;1.05;;;;;;;20.99;46.43;101055.78;5080993;28;20029;-48
2022/05/11 04:57:01;;;;;;;1.45;1.25;;;;;;;21.00;46.33;101053.94;5083834;28;20028;-46
2022/05/11 04:59:27;;;;;;;1.95;1.00;;;;;;;20.97;46.64;101050.53;5083224;28;20081;-47
2022/05/11 05:01:52;;;;;;;3.03;0.90;;;;;;;20.99;46.46;101044.97;5081429;28;20035;-47
2022/05/11 05:04:19;;;;;;;1.10;1.00;;;;;;;20.99;46.45;101055.78;5082636;28;20025;-49
2022/05/11 05:06:45;;;;;;;1.30;0.85;;;;;;;20.99;46.55;101061.19;5070071;28;20021;-46
2022/05/11 05:09:10;;;;;;;1.23;0.90;;;;;;;20.97;46.39;101058.66;5081326;28;20034;-47
2022/05/11 05:11:35;;;;;;;1.58;1.10;;;;;;;20.95;46.67;101052.59;5082245;28;20032;-46
2022/05/11 05:14:00;;;;;;;2.05;1.30;;;;;;;20.99;46.49;101061.19;5064386;28;20125;-48
2022/05/11 05:16:26;;;;;;;1.25;0.82;;;;;;;20.99;46.57;101063.06;5080174;28;20043;-46
2022/05/11 05:18:51;;;;;;;1.40;0.73;;;;;;;20.99;46.82;101061.19;5083473;28;20617;-46
2022/05/11 05:21:17;;;;;;;1.13;0.88;;;;;;;20.99;46.42;101060.38;5082736;28;20020;-48
2022/05/11 05:23:42;;;;;;;0.95;0.75;;;;;;;21.00;46.64;101064.75;5083090;28;20024;-48
2022/05/11 05:26:08;;;;;;;1.23;0.73;;;;;;;20.96;46.78;101065.09;5082675;28;20056;-45
2022/05/11 05:31:21;;;;;;;1.77;1.13;;;;;;;20.99;46.74;101066.59;5081456;28;20411;-49
2022/05/11 05:33:46;;;;;;;1.73;0.82;;;;;;;20.99;46.32;101068.47;5080493;28;20023;-46
2022/05/11 05:36:11;;;;;;;1.20;1.00;;;;;;;21.01;46.75;101074.53;5082742;28;20028;-48
2022/05/11 05:38:38;;;;;;;1.45;0.80;;;;;;;21.01;46.54;101074.53;5084338;28;20127;-46
2022/05/11 05:41:08;;;;;;;1.80;0.90;;;;;;;21.02;46.64;101068.09;5082834;28;20025;-45
2022/05/11 05:43:33;;;;;;;1.10;0.80;;;;;;;21.01;46.27;101063.72;5082503;28;20051;-45
2022/05/11 05:45:59;;;;;;;1.60;0.93;;;;;;;20.99;46.14;101053.09;5081976;28;20032;-45
2022/05/11 05:48:24;;;;;;;1.67;1.05;;;;;;;21.00;46.40;101053.94;5082785;28;20028;-47
2022/05/11 05:50:50;;;;;;;1.20;1.00;;;;;;;21.01;46.43;101052.91;5082670;28;20020;-48
2022/05/11 05:53:19;;;;;;;1.38;1.15;;;;;;;21.03;46.17;101050.88;5089260;28;20650;-48
2022/05/11 05:55:49;;;;;;;1.30;0.90;;;;;;;21.04;46.37;101058.78;5089250;28;20092;-45
2022/05/11 05:58:15;;;;;;;1.10;0.93;;;;;;;21.04;46.16;101066.06;5089460;28;20043;-45
2022/05/11 06:00:40;;;;;;;1.58;0.98;;;;;;;21.04;46.02;101063.38;5088404;28;20698;-46
2022/05/11 06:03:05;;;;;;;1.02;0.82;;;;;;;21.02;46.21;101058.13;5089637;28;20029;-44
2022/05/11 06:05:31;;;;;;;1.30;0.90;;;;;;;21.03;46.37;101061.69;5086542;28;20037;-45
2022/05/11 06:07:56;;;;;;;1.40;0.90;;;;;;;21.03;46.32;101067.94;5086736;28;20024;-45
2022/05/11 06:10:23;;;;;;;1.83;1.00;;;;;;;21.04;46.21;101061.50;5089631;28;20028;-45
2022/05/11 06:12:49;;;;;;;1.02;0.77;;;;;;;21.04;46.06;101061.50;5089413;28;20036;-47
2022/05/11 06:15:14;;;;;;;1.33;0.98;;;;;;;21.04;46.31;101063.38;5089053;28;20058;-46
2022/05/11 06:17:40;;;;;;;1.52;1.05;;;;;;;21.04;46.24;101064.19;5089873;28;20017;-46
2022/05/11 06:20:08;;;;;;;1.23;0.80;;;;;;;21.06;46.10;101069.41;5089487;28;20058;-48
2022/05/11 06:22:33;;;;;;;1.25;0.73;;;;;;;21.06;45.86;101064.00;5090073;28;20025;-47
2022/05/11 06:24:58;;;;;;;1.50;1.10;;;;;;;21.05;46.21;101071.28;5089491;28;20029;-48
2022/05/11 06:27:23;;;;;;;1.35;0.90;;;;;;;21.06;45.86;101064.00;5089679;28;20032;-47
2022/05/11 06:29:54;;;;;;;1.50;0.90;;;;;;;21.08;45.77;101064.69;5089163;28;20032;-46
2022/05/11 06:32:19;;;;;;;1.70;1.00;;;;;;;21.06;45.91;101056.75;5089817;28;20032;-45
2022/05/11 06:34:46;;;;;;;1.33;0.90;;;;;;;21.06;45.75;101055.91;5089313;28;20052;-45
2022/05/11 06:37:11;;;;;;;1.08;0.88;;;;;;;21.06;45.87;101059.44;5089858;28;20023;-47
2022/05/11 06:39:36;;;;;;;0.95;0.75;;;;;;;21.06;45.79;101056.75;5104147;28;20028;-46
2022/05/11 06:42:06;;;;;;;1.27;0.80;;;;;;;21.08;45.94;101059.28;5109720;28;20617;-49
2022/05/11 06:44:32;;;;;;;1.30;0.93;;;;;;;21.07;46.03;101061.16;5093651;28;20059;-45
2022/05/11 06:46:57;;;;;;;1.27;0.80;;;;;;;21.08;45.67;101060.13;5071445;28;20048;-48
2022/05/11 06:49:23;;;;;;;1.77;0.98;;;;;;;21.08;45.77;101062.81;5086997;28;20031;-47
2022/05/11 06:51:48;;;;;;;0.88;0.77;;;;;;;21.11;45.77;101061.59;5089284;28;20021;-48
2022/05/11 06:59:41;;;;;;;1.00;0.70;;;;;;;21.13;45.85;101059.56;5068564;28;20489;-44
2022/05/11 07:02:06;;;;;;;1.17;0.80;;;;;;;21.14;45.67;101053.97;5085742;28;20040;-48
2022/05/11 07:04:33;;;;;;;1.05;0.70;;;;;;;21.15;45.77;101060.22;5077941;28;20043;-48
2022/05/11 07:06:59;;;;;;;1.48;0.90;;;;;;;21.14;45.56;101051.28;5086273;28;20024;-46
2022/05/11 07:09:27;;;;;;;0.95;0.75;;;;;;;21.16;45.28;101051.97;5085992;28;20024;-46
2022/05/11 07:14:37;;;;;;;1.25;1.02;;;;;;;21.14;45.47;101043.16;5085750;28;20036;-46
2022/05/11 07:17:03;;;;;;;0.95;0.80;;;;;;;21.15;45.38;101044.88;5085680;28;20385;-48
2022/05/11 07:19:28;;;;;;;1.42;0.85;;;;;;;21.17;45.46;101050.94;5085725;28;20380;-47
2022/05/11 07:21:54;;;;;;;1.33;0.93;;;;;;;21.17;45.12;101040.13;5085872;28;20028;-48
2022/05/11 07:24:19;;;;;;;0.85;0.80;;;;;;;21.17;45.32;101037.41;5084934;28;20070;-45
2022/05/11 07:26:45;;;;;;;1.30;0.80;;;;;;;21.18;45.10;101041.78;5101635;28;20041;-47
2022/05/11 07:29:10;;;;;;;1.90;1.00;;;;;;;21.17;45.14;101042.81;5085714;28;20103;-45
2022/05/11 07:31:37;;;;;;;0.98;0.85;;;;;;;21.19;45.34;101048.03;5085300;28;20099;-47
2022/05/11 07:34:02;;;;;;;0.95;0.70;;;;;;;21.20;45.28;101038.91;5085478;28;20067;-44
2022/05/11 07:36:27;;;;;;;1.23;0.70;;;;;;;21.20;45.08;101045.16;5085309;28;20016;-45
2022/05/11 07:38:52;;;;;;;1.67;1.00;;;;;;;21.21;45.02;101040.59;5094197;28;20122;-50
2022/05/11 07:41:18;;;;;;;1.15;0.70;;;;;;;21.22;45.29;101047.69;5105820;28;20073;-47
2022/05/11 07:43:43;;;;;;;0.85;0.70;;;;;;;21.21;45.06;101052.25;5092374;28;20051;-46
2022/05/11 07:46:09;;;;;;;2.05;0.98;;;;;;;21.21;44.93;101051.41;5064635;28;20052;-46
2022/05/11 07:48:35;;;;;;;0.73;0.63;;;;;;;21.21;45.12;101054.13;5065480;28;20517;-46
2022/05/11 07:51:00;;;;;;;1.25;0.82;;;;;;;21.21;44.83;101037.88;5065114;28;20021;-47
2022/05/11 07:53:25;;;;;;;1.35;0.60;;;;;;;21.21;45.11;101044.13;5065394;28;20025;-50
2022/05/11 07:59:52;;;;;;;1.77;0.88;;;;;;;21.17;44.85;101050.09;5065361;28;20023;-45
2022/05/11 08:01:20;;;;;;;0.93;0.70;;;;;;;21.21;45.08;101044.13;5063765;28;20055;-48
2022/05/11 08:03:45;;;;;;;1.00;0.65;;;;;;;21.22;44.69;101050.38;5074674;28;20028;-45
2022/05/11 08:06:10;;;;;;;0.88;0.60;;;;;;;21.22;45.02;101042.28;5084633;28;20035;-46
2022/05/11 08:08:35;;;;;;;0.88;0.70;;;;;;;21.23;45.03;101043.94;5085163;28;20024;-47
2022/05/11 08:11:01;;;;;;;1.33;0.68;;;;;;;21.23;44.98;101052.06;5084720;28;20043;-46
2022/05/11 08:13:26;;;;;;;0.88;0.60;;;;;;;21.23;45.03;101052.06;5083531;28;20029;-45
2022/05/11 08:15:51;;;;;;;0.93;0.75;;;;;;;21.23;44.79;101050.19;5084237;28;20016;-45
2022/05/11 08:18:18;;;;;;;0.65;0.57;;;;;;;21.26;44.63;101053.56;5084841;28;20025;-46
2022/05/11 08:20:44;;;;;;;1.17;0.77;;;;;;;21.25;44.81;101049.19;5083271;28;20033;-47
2022/05/11 08:23:10;;;;;;;0.65;0.57;;;;;;;21.26;44.45;101046.28;5085056;28;20052;-47
2022/05/11 08:25:38;;;;;;;1.02;0.60;;;;;;;21.27;44.50;101045.28;5084429;28;20031;-45
2022/05/11 08:28:12;;;;;;;0.90;0.68;;;;;;;21.28;44.69;101040.69;5081554;28;20037;-45
2022/05/11 08:33:22;;;;;;;0.90;0.60;;;;;;;21.28;44.77;101043.41;5084381;28;20026;-44
2022/05/11 08:35:59;;;;;;;1.38;0.70;;;;;;;21.30;44.68;101044.91;5084298;28;20480;-44
2022/05/11 08:38:28;;;;;;;1.17;0.68;;;;;;;21.32;44.64;101044.75;5073862;28;20034;-44
2022/05/11 08:41:08;;;;;;;1.33;0.90;;;;;;;21.33;44.41;101036.47;5104491;28;20404;-44
2022/05/11 08:43:34;;;;;;;0.70;0.50;;;;;;;21.33;44.22;101039.19;5092042;28;20054;-45
2022/05/11 08:46:32;;;;;;;1.13;0.52;;;;;;;21.33;44.64;101047.28;5073421;28;20017;-47
2022/05/11 08:49:04;;;;;;;1.15;0.50;;;;;;;21.34;44.36;101042.72;5071390;28;20064;-45
2022/05/11 08:51:51;;;;;;;0.93;0.68;;;;;;;21.33;44.24;101041.88;5063895;28;20053;-48
2022/05/11 08:54:38;;;;;;;1.08;0.60;;;;;;;21.33;44.44;101047.28;5064059;28;20036;-46
2022/05/11 08:57:10;;;;;;;0.68;0.50;;;;;;;21.33;44.36;101050.00;5064301;28;20489;-47
2022/05/11 08:59:37;;;;;;;1.30;0.63;;;;;;;21.29;44.37;101034.28;5080826;28;20068;-46
2022/05/11 09:02:39;;;;;;;1.15;0.70;;;;;;;21.34;44.06;101046.28;5082467;28;20047;-49
2022/05/11 09:05:05;;;;;;;0.75;0.50;;;;;;;21.29;44.22;101054.06;5083090;28;20032;-54
2022/05/11 09:07:37;;;;;;;1.00;0.50;;;;;;;21.33;44.18;101057.28;5074237;28;20037;-49
2022/05/11 09:10:03;;;;;;;0.98;0.65;;;;;;;21.33;43.98;101049.16;5070333;28;20029;-49
2022/05/11 09:12:28;;;;;;;1.20;0.40;;;;;;;21.33;44.05;101044.59;5071734;28;20035;-49
2022/05/11 09:14:56;;;;;;;0.70;0.50;;;;;;;21.34;44.19;101048.97;5075759;28;20069;-48
2022/05/11 09:17:27;;;;;;;1.25;0.73;;;;;;;21.35;44.16;101049.81;5073873;28;20020;-48
2022/05/11 09:20:06;;;;;;;0.60;0.55;;;;;;;21.37;44.24;101045.91;5074779;28;20505;-48
2022/05/11 09:22:33;;;;;;;0.60;0.50;;;;;;;21.39;44.31;101034.91;5077946;28;20028;-47
2022/05/11 09:25:03;;;;;;;0.93;0.52;;;;;;;21.39;43.91;101037.59;5072637;28;20062;-49
2022/05/11 09:27:32;;;;;;;1.02;0.55;;;;;;;21.39;44.33;101033.03;5078493;28;20036;-49
2022/05/11 09:30:26;;;;;;;0.63;0.52;;;;;;;21.41;44.07;101044.53;5080468;28;20037;-52
2022/05/11 09:33:12;;;;;;;0.70;0.47;;;;;;;21.41;43.99;101039.13;5052787;28;20025;-47
2022/05/11 09:35:38;;;;;;;1.17;0.70;;;;;;;21.38;44.30;101031.34;5066431;28;20469;-50
2022/05/11 09:38:05;;;;;;;1.33;0.50;;;;;;;21.43;44.33;101033.50;5078927;28;20119;-48
2022/05/11 09:40:32;;;;;;;0.88;0.40;;;;;;;21.44;43.98;101041.44;5077126;28;20098;-46
2022/05/11 09:43:03;;;;;;;0.60;0.45;;;;;;;21.46;43.92;101038.56;5064754;28;20103;-45
2022/05/11 09:45:39;;;;;;;1.10;0.60;;;;;;;21.47;44.25;101034.84;5075605;28;20051;-46
2022/05/11 09:48:20;;;;;;;1.05;0.60;;;;;;;21.49;43.95;101029.22;5076244;28;20044;-48
2022/05/11 09:50:47;;;;;;;0.70;0.40;;;;;;;21.48;44.00;101027.56;5077048;28;20047;-45
2022/05/11 09:53:26;;;;;;;0.90;0.65;;;;;;;21.48;44.06;101041.09;5077513;28;20028;-47
2022/05/11 09:55:51;;;;;;;0.40;0.38;;;;;;;21.49;44.46;101035.47;5072783;28;20024;-51
2022/05/11 09:58:32;;;;;;;0.95;0.50;;;;;;;21.51;44.38;101025.34;5072991;28;20032;-49
2022/05/11 10:01:13;;;;;;;1.02;0.45;;;;;;;21.52;43.97;101032.41;5076107;28;20024;-50
2022/05/11 10:03:43;;;;;;;0.82;0.40;;;;;;;21.53;44.01;101025.97;5073666;28;20032;-47
2022/05/11 10:06:09;;;;;;;0.43;0.43;;;;;;;21.53;44.06;101023.28;5075457;28;20033;-49
2022/05/11 10:08:36;;;;;;;1.48;0.52;;;;;;;21.55;44.07;101031.22;5072312;28;20028;-53
2022/05/11 10:11:20;;;;;;;0.60;0.45;;;;;;;21.57;44.24;101027.28;5067920;28;20085;-51
2022/05/11 10:13:52;;;;;;;0.80;0.60;;;;;;;21.55;44.22;101028.50;5069553;28;20025;-51
2022/05/11 10:22:33;;;;;;;1.38;0.60;;;;;;;21.58;44.30;101029.00;5074149;28;20425;-53
2022/05/11 10:25:13;;;;;;;0.73;0.55;;;;;;;21.60;44.28;101015.28;5071207;28;20031;-53
2022/05/11 10:28:10;;;;;;;0.35;0.30;;;;;;;21.61;44.64;101022.34;5073432;28;20025;-53
2022/05/11 10:30:43;;;;;;;0.50;0.32;;;;;;;21.61;44.28;101020.50;5062538;28;20029;-48
2022/05/11 10:33:14;;;;;;;1.33;0.50;;;;;;;21.61;44.64;101011.53;5070440;28;20082;-54
2022/05/11 10:35:46;;;;;;;0.88;0.40;;;;;;;21.63;44.58;101014.91;5075918;28;20034;-50
2022/05/11 10:38:39;;;;;;;0.70;0.50;;;;;;;21.64;44.49;101012.00;5080186;28;20039;-53
2022/05/11 10:41:35;;;;;;;0.98;0.57;;;;;;;21.66;44.72;101006.41;5073958;28;20025;-52
2022/05/11 10:44:34;;;;;;;0.75;0.45;;;;;;;21.66;44.51;101020.81;5076360;28;20079;-47
2022/05/11 10:47:21;;;;;;;0.77;0.43;;;;;;;21.66;44.42;101011.81;5079930;28;20048;-49
2022/05/11 10:49:56;;;;;;;0.55;0.40;;;;;;;21.69;44.46;101017.69;5076739;28;20045;-49
2022/05/11 10:52:32;;;;;;;1.38;0.60;;;;;;;21.71;44.56;101009.41;5076231;28;20052;-55
2022/05/11 10:55:23;;;;;;;0.75;0.50;;;;;;;21.72;44.63;101008.38;5065439;28;20049;-52
2022/05/11 10:58:05;;;;;;;0.65;0.38;;;;;;;21.70;44.72;101000.44;5075897;28;20029;-51
2022/05/11 11:00:32;;;;;;;0.40;0.30;;;;;;;21.75;44.71;101004.44;5075487;28;20020;-49
2022/05/11 11:03:07;;;;;;;0.52;0.40;;;;;;;21.76;44.56;101012.41;5075939;28;20032;-50
2022/05/11 11:08:58;;;;;;;0.55;0.30;;;;;;;21.79;44.81;101012.03;5077128;28;20058;-51
2022/05/11 11:11:41;;;;;;;0.73;0.50;;;;;;;21.79;44.67;101003.06;5078243;28;20024;-51
2022/05/11 11:14:09;;;;;;;0.95;0.60;;;;;;;21.80;44.63;101005.59;5078561;28;20123;-49
2022/05/11 11:16:37;;;;;;;0.33;0.30;;;;;;;21.83;45.02;101012.50;5074336;28;20031;-50
2022/05/11 11:19:04;;;;;;;1.23;0.40;;;;;;;21.84;45.00;100996.09;5076195;28;20297;-53
2022/05/11 11:21:30;;;;;;;0.77;0.43;;;;;;;21.85;44.97;101010.47;5075120;28;20043;-52
2022/05/11 11:24:11;;;;;;;0.40;0.32;;;;;;;21.88;44.97;101013.63;5080018;28;20044;-54
2022/05/11 11:26:39;;;;;;;0.73;0.40;;;;;;;21.89;44.84;100995.53;5075396;28;20657;-52
2022/05/11 11:29:07;;;;;;;0.40;0.35;;;;;;;21.90;44.99;100989.91;5072506;28;20045;-53
2022/05/11 11:31:59;;;;;;;1.20;0.63;;;;;;;21.92;44.83;100996.00;5075466;28;20445;-55
2022/05/11 11:35:01;;;;;;;0.70;0.35;;;;;;;21.93;44.57;100994.97;5075603;28;20025;-52
2022/05/11 11:37:32;;;;;;;0.82;0.40;;;;;;;21.94;45.07;100987.69;5072082;28;20046;-55
2022/05/11 11:39:59;;;;;;;0.60;0.40;;;;;;;21.96;45.00;100986.47;5082187;28;20041;-53
2022/05/11 11:42:37;;;;;;;0.60;0.40;;;;;;;22.00;44.58;100981.50;5082043;28;20029;-53
2022/05/11 11:45:05;;;;;;;0.75;0.40;;;;;;;22.02;44.76;100981.34;5078461;28;20032;-52
2022/05/11 11:47:37;;;;;;;1.42;0.50;;;;;;;22.03;44.70;100978.44;5075308;28;20057;-52
2022/05/11 11:50:04;;;;;;;0.63;0.40;;;;;;;22.06;44.76;100977.22;5078125;28;20095;-53
2022/05/11 11:52:44;;;;;;;0.98;0.50;;;;;;;22.08;44.66;100970.56;5079556;28;20029;-51
2022/05/11 11:55:18;;;;;;;0.35;0.30;;;;;;;22.10;44.78;100970.41;5067238;28;20031;-52
2022/05/11 11:57:46;;;;;;;0.75;0.47;;;;;;;22.11;44.82;100966.66;5076885;28;20035;-51
2022/05/11 12:00:20;;;;;;;0.47;0.40;;;;;;;22.14;44.59;100963.63;5067548;28;20482;-52
2022/05/11 12:02:46;;;;;;;0.45;0.40;;;;;;;22.14;44.75;100971.75;5076704;28;20025;-50
2022/05/11 12:05:28;;;;;;;0.40;0.30;;;;;;;22.17;44.81;100969.50;5076404;28;20033;-51
2022/05/11 12:16:22;;;;;;;0.80;0.60;;;;;;;22.21;44.82;100973.47;5071882;28;20085;-51